sensor_id;sensor_type;location;lat;lon;timestamp;P1;durP1;ratioP1;P2;durP2;ratioP2
81864;SDS011;71313;43.514;1.500;2024-01-06T00:01:43;1.95;;;1.02;;
81864;SDS011;71313;43.514;1.500;2024-01-06T00:04:08;2.65;;;0.90;;
81864;SDS011;71313;43.514;1.500;2024-01-06T00:06:34;2.28;;;1.20;;
81864;SDS011;71313;43.514;1.500;2024-01-06T00:09:00;1.85;;;1.15;;
81864;SDS011;71313;43.514;1.500;2024-01-06T00:11:25;2.40;;;1.10;;
81864;SDS011;71313;43.514;1.500;2024-01-06T00:13:52;2.80;;;1.10;;
81864;SDS011;71313;43.514;1.500;2024-01-06T00:16:18;2.08;;;1.17;;
81864;SDS011;71313;43.514;1.500;2024-01-06T00:18:44;2.50;;;1.27;;
81864;SDS011;71313;43.514;1.500;2024-01-06T00:21:10;3.20;;;1.50;;
81864;SDS011;71313;43.514;1.500;2024-01-06T00:23:36;2.90;;;1.20;;
81864;SDS011;71313;43.514;1.500;2024-01-06T00:26:02;5.30;;;1.80;;
81864;SDS011;71313;43.514;1.500;2024-01-06T00:28:28;3.83;;;1.35;;
81864;SDS011;71313;43.514;1.500;2024-01-06T00:30:53;4.30;;;1.58;;
81864;SDS011;71313;43.514;1.500;2024-01-06T00:33:19;2.92;;;1.60;;
81864;SDS011;71313;43.514;1.500;2024-01-06T00:35:45;4.78;;;1.67;;
81864;SDS011;71313;43.514;1.500;2024-01-06T00:38:11;3.33;;;1.80;;
81864;SDS011;71313;43.514;1.500;2024-01-06T00:40:37;3.75;;;1.75;;
81864;SDS011;71313;43.514;1.500;2024-01-06T00:43:03;3.85;;;1.80;;
81864;SDS011;71313;43.514;1.500;2024-01-06T00:45:30;4.47;;;2.17;;
81864;SDS011;71313;43.514;1.500;2024-01-06T00:47:56;5.32;;;2.28;;
81864;SDS011;71313;43.514;1.500;2024-01-06T00:50:21;4.57;;;2.10;;
81864;SDS011;71313;43.514;1.500;2024-01-06T00:52:47;3.80;;;2.15;;
81864;SDS011;71313;43.514;1.500;2024-01-06T00:55:13;4.15;;;2.10;;
81864;SDS011;71313;43.514;1.500;2024-01-06T00:57:38;6.03;;;2.03;;
81864;SDS011;71313;43.514;1.500;2024-01-06T01:00:04;3.92;;;2.10;;
81864;SDS011;71313;43.514;1.500;2024-01-06T01:02:31;6.03;;;1.75;;
81864;SDS011;71313;43.514;1.500;2024-01-06T01:04:57;3.40;;;1.80;;
81864;SDS011;71313;43.514;1.500;2024-01-06T01:07:23;3.00;;;1.75;;
81864;SDS011;71313;43.514;1.500;2024-01-06T01:09:49;3.40;;;1.75;;
81864;SDS011;71313;43.514;1.500;2024-01-06T01:12:15;3.05;;;1.65;;
81864;SDS011;71313;43.514;1.500;2024-01-06T01:14:40;4.93;;;2.40;;
81864;SDS011;71313;43.514;1.500;2024-01-06T01:17:06;3.70;;;1.73;;
81864;SDS011;71313;43.514;1.500;2024-01-06T01:19:33;4.53;;;1.83;;
81864;SDS011;71313;43.514;1.500;2024-01-06T01:21:59;3.50;;;1.80;;
81864;SDS011;71313;43.514;1.500;2024-01-06T01:24:25;4.20;;;1.95;;
81864;SDS011;71313;43.514;1.500;2024-01-06T01:26:51;4.07;;;1.83;;
81864;SDS011;71313;43.514;1.500;2024-01-06T01:29:17;5.18;;;1.92;;
81864;SDS011;71313;43.514;1.500;2024-01-06T01:31:45;4.32;;;1.80;;
81864;SDS011;71313;43.514;1.500;2024-01-06T01:34:10;5.28;;;2.03;;
81864;SDS011;71313;43.514;1.500;2024-01-06T01:36:39;3.65;;;1.80;;
81864;SDS011;71313;43.514;1.500;2024-01-06T01:39:05;3.50;;;1.70;;
81864;SDS011;71313;43.514;1.500;2024-01-06T01:41:31;4.25;;;1.90;;
81864;SDS011;71313;43.514;1.500;2024-01-06T01:43:57;3.88;;;1.63;;
81864;SDS011;71313;43.514;1.500;2024-01-06T01:46:29;3.83;;;2.08;;
81864;SDS011;71313;43.514;1.500;2024-01-06T01:48:55;3.85;;;2.05;;
81864;SDS011;71313;43.514;1.500;2024-01-06T01:51:24;2.58;;;1.77;;
81864;SDS011;71313;43.514;1.500;2024-01-06T01:53:53;4.13;;;1.85;;
81864;SDS011;71313;43.514;1.500;2024-01-06T01:56:19;5.43;;;2.13;;
81864;SDS011;71313;43.514;1.500;2024-01-06T01:58:46;4.45;;;1.80;;
81864;SDS011;71313;43.514;1.500;2024-01-06T02:01:12;4.53;;;1.90;;
81864;SDS011;71313;43.514;1.500;2024-01-06T02:03:38;8.43;;;2.15;;
81864;SDS011;71313;43.514;1.500;2024-01-06T02:06:06;3.95;;;1.88;;
81864;SDS011;71313;43.514;1.500;2024-01-06T02:08:32;3.95;;;1.55;;
81864;SDS011;71313;43.514;1.500;2024-01-06T02:10:57;4.43;;;1.50;;
81864;SDS011;71313;43.514;1.500;2024-01-06T02:13:24;4.55;;;1.90;;
81864;SDS011;71313;43.514;1.500;2024-01-06T02:15:49;4.30;;;1.60;;
81864;SDS011;71313;43.514;1.500;2024-01-06T02:18:15;3.58;;;1.70;;
81864;SDS011;71313;43.514;1.500;2024-01-06T02:20:42;3.55;;;1.90;;
81864;SDS011;71313;43.514;1.500;2024-01-06T02:23:09;4.97;;;1.65;;
81864;SDS011;71313;43.514;1.500;2024-01-06T02:25:35;3.80;;;1.63;;
81864;SDS011;71313;43.514;1.500;2024-01-06T02:28:00;3.70;;;1.60;;
81864;SDS011;71313;43.514;1.500;2024-01-06T02:30:26;5.25;;;1.60;;
81864;SDS011;71313;43.514;1.500;2024-01-06T02:32:51;4.63;;;1.50;;
81864;SDS011;71313;43.514;1.500;2024-01-06T02:35:19;4.90;;;1.52;;
81864;SDS011;71313;43.514;1.500;2024-01-06T02:37:45;5.10;;;1.63;;
81864;SDS011;71313;43.514;1.500;2024-01-06T02:40:11;4.20;;;1.52;;
81864;SDS011;71313;43.514;1.500;2024-01-06T02:42:38;6.95;;;2.30;;
81864;SDS011;71313;43.514;1.500;2024-01-06T02:45:04;2.70;;;1.67;;
81864;SDS011;71313;43.514;1.500;2024-01-06T02:47:29;4.45;;;1.80;;
81864;SDS011;71313;43.514;1.500;2024-01-06T02:49:55;5.65;;;1.58;;
81864;SDS011;71313;43.514;1.500;2024-01-06T02:52:22;3.50;;;1.75;;
81864;SDS011;71313;43.514;1.500;2024-01-06T02:54:48;2.53;;;1.88;;
81864;SDS011;71313;43.514;1.500;2024-01-06T02:57:14;4.78;;;1.90;;
81864;SDS011;71313;43.514;1.500;2024-01-06T02:59:40;3.92;;;1.70;;
81864;SDS011;71313;43.514;1.500;2024-01-06T03:02:05;6.10;;;1.77;;
81864;SDS011;71313;43.514;1.500;2024-01-06T03:04:31;5.15;;;1.73;;
81864;SDS011;71313;43.514;1.500;2024-01-06T03:06:56;5.28;;;2.10;;
81864;SDS011;71313;43.514;1.500;2024-01-06T03:09:22;5.30;;;1.98;;
81864;SDS011;71313;43.514;1.500;2024-01-06T03:11:47;3.92;;;1.50;;
81864;SDS011;71313;43.514;1.500;2024-01-06T03:14:15;3.35;;;1.67;;
81864;SDS011;71313;43.514;1.500;2024-01-06T03:16:41;4.18;;;1.70;;
81864;SDS011;71313;43.514;1.500;2024-01-06T03:19:07;2.80;;;1.38;;
81864;SDS011;71313;43.514;1.500;2024-01-06T03:21:34;3.83;;;1.70;;
81864;SDS011;71313;43.514;1.500;2024-01-06T03:24:00;3.17;;;1.40;;
81864;SDS011;71313;43.514;1.500;2024-01-06T03:26:25;3.65;;;1.50;;
81864;SDS011;71313;43.514;1.500;2024-01-06T03:28:54;6.28;;;1.63;;
81864;SDS011;71313;43.514;1.500;2024-01-06T03:31:19;3.72;;;1.50;;
81864;SDS011;71313;43.514;1.500;2024-01-06T03:33:47;4.10;;;2.05;;
81864;SDS011;71313;43.514;1.500;2024-01-06T03:36:12;3.35;;;1.70;;
81864;SDS011;71313;43.514;1.500;2024-01-06T03:38:40;3.72;;;1.40;;
81864;SDS011;71313;43.514;1.500;2024-01-06T03:41:06;2.92;;;1.55;;
81864;SDS011;71313;43.514;1.500;2024-01-06T03:43:31;2.47;;;1.38;;
81864;SDS011;71313;43.514;1.500;2024-01-06T03:45:57;3.95;;;1.50;;
81864;SDS011;71313;43.514;1.500;2024-01-06T03:48:25;3.30;;;1.30;;
81864;SDS011;71313;43.514;1.500;2024-01-06T03:50:50;4.13;;;1.52;;
81864;SDS011;71313;43.514;1.500;2024-01-06T03:53:17;4.80;;;1.42;;
81864;SDS011;71313;43.514;1.500;2024-01-06T03:55:42;4.95;;;1.42;;
81864;SDS011;71313;43.514;1.500;2024-01-06T03:58:10;3.13;;;1.23;;
81864;SDS011;71313;43.514;1.500;2024-01-06T04:00:35;3.13;;;1.27;;
81864;SDS011;71313;43.514;1.500;2024-01-06T04:03:01;5.15;;;1.60;;
81864;SDS011;71313;43.514;1.500;2024-01-06T04:05:27;3.83;;;1.20;;
81864;SDS011;71313;43.514;1.500;2024-01-06T04:07:52;4.55;;;1.45;;
81864;SDS011;71313;43.514;1.500;2024-01-06T04:10:18;3.38;;;1.23;;
81864;SDS011;71313;43.514;1.500;2024-01-06T04:12:44;4.35;;;1.05;;
81864;SDS011;71313;43.514;1.500;2024-01-06T04:15:09;4.28;;;1.38;;
81864;SDS011;71313;43.514;1.500;2024-01-06T04:17:35;6.57;;;1.20;;
81864;SDS011;71313;43.514;1.500;2024-01-06T04:20:00;3.58;;;1.33;;
81864;SDS011;71313;43.514;1.500;2024-01-06T04:22:26;3.05;;;1.05;;
81864;SDS011;71313;43.514;1.500;2024-01-06T04:24:52;2.85;;;1.30;;
81864;SDS011;71313;43.514;1.500;2024-01-06T04:27:18;4.43;;;1.23;;
81864;SDS011;71313;43.514;1.500;2024-01-06T04:29:46;3.75;;;1.20;;
81864;SDS011;71313;43.514;1.500;2024-01-06T04:32:12;5.55;;;1.30;;
81864;SDS011;71313;43.514;1.500;2024-01-06T04:34:38;3.65;;;1.20;;
81864;SDS011;71313;43.514;1.500;2024-01-06T04:37:04;3.33;;;1.10;;
81864;SDS011;71313;43.514;1.500;2024-01-06T04:39:32;4.07;;;1.35;;
81864;SDS011;71313;43.514;1.500;2024-01-06T04:41:57;3.30;;;1.20;;
81864;SDS011;71313;43.514;1.500;2024-01-06T04:44:23;4.28;;;1.27;;
81864;SDS011;71313;43.514;1.500;2024-01-06T04:46:50;3.72;;;1.52;;
81864;SDS011;71313;43.514;1.500;2024-01-06T04:49:15;2.63;;;1.08;;
81864;SDS011;71313;43.514;1.500;2024-01-06T04:51:42;4.22;;;1.20;;
81864;SDS011;71313;43.514;1.500;2024-01-06T04:54:09;2.47;;;1.30;;
81864;SDS011;71313;43.514;1.500;2024-01-06T04:56:35;3.60;;;1.60;;
81864;SDS011;71313;43.514;1.500;2024-01-06T04:59:01;3.72;;;1.48;;
81864;SDS011;71313;43.514;1.500;2024-01-06T05:01:27;3.30;;;1.35;;
81864;SDS011;71313;43.514;1.500;2024-01-06T05:03:52;3.55;;;1.40;;
81864;SDS011;71313;43.514;1.500;2024-01-06T05:06:19;3.78;;;1.38;;
81864;SDS011;71313;43.514;1.500;2024-01-06T05:08:44;5.38;;;1.58;;
81864;SDS011;71313;43.514;1.500;2024-01-06T05:11:10;4.25;;;1.63;;
81864;SDS011;71313;43.514;1.500;2024-01-06T05:13:37;3.58;;;1.50;;
81864;SDS011;71313;43.514;1.500;2024-01-06T05:16:02;6.50;;;1.58;;
81864;SDS011;71313;43.514;1.500;2024-01-06T05:18:28;2.83;;;1.98;;
81864;SDS011;71313;43.514;1.500;2024-01-06T05:20:54;5.97;;;1.80;;
81864;SDS011;71313;43.514;1.500;2024-01-06T05:23:20;5.35;;;1.80;;
81864;SDS011;71313;43.514;1.500;2024-01-06T05:25:45;3.50;;;1.60;;
81864;SDS011;71313;43.514;1.500;2024-01-06T05:28:11;4.88;;;1.83;;
81864;SDS011;71313;43.514;1.500;2024-01-06T05:30:37;3.05;;;1.75;;
81864;SDS011;71313;43.514;1.500;2024-01-06T05:33:03;3.85;;;1.40;;
81864;SDS011;71313;43.514;1.500;2024-01-06T05:35:30;4.45;;;1.52;;
81864;SDS011;71313;43.514;1.500;2024-01-06T05:37:57;4.57;;;1.80;;
81864;SDS011;71313;43.514;1.500;2024-01-06T05:40:22;6.38;;;1.98;;
81864;SDS011;71313;43.514;1.500;2024-01-06T05:42:48;3.90;;;2.00;;
81864;SDS011;71313;43.514;1.500;2024-01-06T05:45:13;4.40;;;1.75;;
81864;SDS011;71313;43.514;1.500;2024-01-06T05:47:39;3.92;;;1.90;;
81864;SDS011;71313;43.514;1.500;2024-01-06T05:50:05;5.18;;;1.98;;
81864;SDS011;71313;43.514;1.500;2024-01-06T05:52:31;6.13;;;1.92;;
81864;SDS011;71313;43.514;1.500;2024-01-06T05:54:58;4.80;;;1.70;;
81864;SDS011;71313;43.514;1.500;2024-01-06T05:57:23;5.32;;;2.17;;
81864;SDS011;71313;43.514;1.500;2024-01-06T05:59:49;4.78;;;1.88;;
81864;SDS011;71313;43.514;1.500;2024-01-06T06:02:15;3.88;;;2.30;;
81864;SDS011;71313;43.514;1.500;2024-01-06T06:04:40;4.13;;;2.05;;
81864;SDS011;71313;43.514;1.500;2024-01-06T06:07:06;3.47;;;1.77;;
81864;SDS011;71313;43.514;1.500;2024-01-06T06:09:35;4.60;;;2.13;;
81864;SDS011;71313;43.514;1.500;2024-01-06T06:12:03;4.05;;;2.08;;
81864;SDS011;71313;43.514;1.500;2024-01-06T06:14:28;6.78;;;2.17;;
81864;SDS011;71313;43.514;1.500;2024-01-06T06:16:58;4.93;;;2.40;;
81864;SDS011;71313;43.514;1.500;2024-01-06T06:19:24;5.43;;;2.20;;
81864;SDS011;71313;43.514;1.500;2024-01-06T06:21:49;5.68;;;2.42;;
81864;SDS011;71313;43.514;1.500;2024-01-06T06:24:15;4.57;;;2.53;;
81864;SDS011;71313;43.514;1.500;2024-01-06T06:26:40;4.80;;;2.40;;
81864;SDS011;71313;43.514;1.500;2024-01-06T06:29:05;4.80;;;2.20;;
81864;SDS011;71313;43.514;1.500;2024-01-06T06:31:31;5.70;;;2.25;;
81864;SDS011;71313;43.514;1.500;2024-01-06T06:33:57;5.93;;;3.00;;
81864;SDS011;71313;43.514;1.500;2024-01-06T06:36:23;7.78;;;2.25;;
81864;SDS011;71313;43.514;1.500;2024-01-06T06:38:48;4.85;;;2.42;;
81864;SDS011;71313;43.514;1.500;2024-01-06T06:41:13;3.83;;;2.13;;
81864;SDS011;71313;43.514;1.500;2024-01-06T06:43:41;6.78;;;2.80;;
81864;SDS011;71313;43.514;1.500;2024-01-06T06:46:06;4.15;;;2.20;;
81864;SDS011;71313;43.514;1.500;2024-01-06T06:48:32;6.18;;;2.50;;
81864;SDS011;71313;43.514;1.500;2024-01-06T06:50:57;5.72;;;2.97;;
81864;SDS011;71313;43.514;1.500;2024-01-06T06:53:26;5.07;;;2.53;;
81864;SDS011;71313;43.514;1.500;2024-01-06T06:55:51;5.63;;;2.13;;
81864;SDS011;71313;43.514;1.500;2024-01-06T06:58:17;3.35;;;2.00;;
81864;SDS011;71313;43.514;1.500;2024-01-06T07:00:43;3.15;;;1.98;;
81864;SDS011;71313;43.514;1.500;2024-01-06T07:03:09;3.80;;;2.10;;
81864;SDS011;71313;43.514;1.500;2024-01-06T07:05:34;3.75;;;1.85;;
81864;SDS011;71313;43.514;1.500;2024-01-06T07:08:00;4.97;;;2.28;;
81864;SDS011;71313;43.514;1.500;2024-01-06T07:10:26;3.58;;;1.70;;
81864;SDS011;71313;43.514;1.500;2024-01-06T07:12:51;5.45;;;2.30;;
81864;SDS011;71313;43.514;1.500;2024-01-06T07:15:17;3.65;;;1.85;;
81864;SDS011;71313;43.514;1.500;2024-01-06T07:17:42;4.05;;;1.90;;
81864;SDS011;71313;43.514;1.500;2024-01-06T07:20:09;3.17;;;1.70;;
81864;SDS011;71313;43.514;1.500;2024-01-06T07:22:36;4.07;;;1.80;;
81864;SDS011;71313;43.514;1.500;2024-01-06T07:25:02;4.10;;;1.60;;
81864;SDS011;71313;43.514;1.500;2024-01-06T07:27:28;1.88;;;1.33;;
81864;SDS011;71313;43.514;1.500;2024-01-06T07:29:54;4.18;;;2.00;;
81864;SDS011;71313;43.514;1.500;2024-01-06T07:32:21;4.38;;;2.00;;
81864;SDS011;71313;43.514;1.500;2024-01-06T07:34:47;2.83;;;1.40;;
81864;SDS011;71313;43.514;1.500;2024-01-06T07:37:12;3.55;;;1.90;;
81864;SDS011;71313;43.514;1.500;2024-01-06T07:39:38;3.10;;;1.90;;
81864;SDS011;71313;43.514;1.500;2024-01-06T07:42:03;4.85;;;2.22;;
81864;SDS011;71313;43.514;1.500;2024-01-06T07:44:29;6.03;;;2.33;;
81864;SDS011;71313;43.514;1.500;2024-01-06T07:46:56;5.55;;;2.50;;
81864;SDS011;71313;43.514;1.500;2024-01-06T07:49:21;7.13;;;2.55;;
81864;SDS011;71313;43.514;1.500;2024-01-06T07:51:47;5.32;;;2.83;;
81864;SDS011;71313;43.514;1.500;2024-01-06T07:54:13;4.60;;;1.77;;
81864;SDS011;71313;43.514;1.500;2024-01-06T07:56:39;2.50;;;1.58;;
81864;SDS011;71313;43.514;1.500;2024-01-06T07:59:05;3.17;;;1.90;;
81864;SDS011;71313;43.514;1.500;2024-01-06T08:01:30;3.97;;;1.85;;
81864;SDS011;71313;43.514;1.500;2024-01-06T08:03:56;2.30;;;1.40;;
81864;SDS011;71313;43.514;1.500;2024-01-06T08:06:22;1.73;;;1.20;;
81864;SDS011;71313;43.514;1.500;2024-01-06T08:08:47;1.52;;;1.20;;
81864;SDS011;71313;43.514;1.500;2024-01-06T08:11:13;1.70;;;0.95;;
81864;SDS011;71313;43.514;1.500;2024-01-06T08:13:38;1.73;;;1.10;;
81864;SDS011;71313;43.514;1.500;2024-01-06T08:16:06;1.88;;;0.70;;
81864;SDS011;71313;43.514;1.500;2024-01-06T08:18:32;2.05;;;0.93;;
81864;SDS011;71313;43.514;1.500;2024-01-06T08:20:58;1.67;;;0.90;;
81864;SDS011;71313;43.514;1.500;2024-01-06T08:23:26;2.03;;;0.70;;
81864;SDS011;71313;43.514;1.500;2024-01-06T08:25:52;1.45;;;0.80;;
81864;SDS011;71313;43.514;1.500;2024-01-06T08:28:18;1.13;;;0.80;;
81864;SDS011;71313;43.514;1.500;2024-01-06T08:30:44;2.97;;;1.60;;
81864;SDS011;71313;43.514;1.500;2024-01-06T08:33:09;1.58;;;1.00;;
81864;SDS011;71313;43.514;1.500;2024-01-06T08:35:35;2.05;;;1.40;;
81864;SDS011;71313;43.514;1.500;2024-01-06T08:38:05;1.60;;;1.20;;
81864;SDS011;71313;43.514;1.500;2024-01-06T08:40:34;2.42;;;1.10;;
81864;SDS011;71313;43.514;1.500;2024-01-06T08:43:00;2.17;;;1.33;;
81864;SDS011;71313;43.514;1.500;2024-01-06T08:45:25;2.78;;;1.40;;
81864;SDS011;71313;43.514;1.500;2024-01-06T08:47:53;2.10;;;1.35;;
81864;SDS011;71313;43.514;1.500;2024-01-06T08:50:18;2.45;;;1.63;;
81864;SDS011;71313;43.514;1.500;2024-01-06T08:52:44;2.03;;;1.30;;
81864;SDS011;71313;43.514;1.500;2024-01-06T08:55:11;2.88;;;1.30;;
81864;SDS011;71313;43.514;1.500;2024-01-06T08:57:36;3.42;;;1.20;;
81864;SDS011;71313;43.514;1.500;2024-01-06T09:00:02;2.88;;;1.30;;
81864;SDS011;71313;43.514;1.500;2024-01-06T09:02:29;3.58;;;1.30;;
81864;SDS011;71313;43.514;1.500;2024-01-06T09:04:56;4.05;;;1.52;;
81864;SDS011;71313;43.514;1.500;2024-01-06T09:07:23;2.00;;;1.20;;
81864;SDS011;71313;43.514;1.500;2024-01-06T09:09:50;4.53;;;1.90;;
81864;SDS011;71313;43.514;1.500;2024-01-06T09:12:17;3.65;;;1.88;;
81864;SDS011;71313;43.514;1.500;2024-01-06T09:14:42;5.28;;;2.22;;
81864;SDS011;71313;43.514;1.500;2024-01-06T09:17:08;3.45;;;1.75;;
81864;SDS011;71313;43.514;1.500;2024-01-06T09:19:33;3.95;;;1.80;;
81864;SDS011;71313;43.514;1.500;2024-01-06T09:21:59;3.88;;;2.20;;
81864;SDS011;71313;43.514;1.500;2024-01-06T09:24:26;3.90;;;2.10;;
81864;SDS011;71313;43.514;1.500;2024-01-06T09:26:51;6.80;;;2.22;;
81864;SDS011;71313;43.514;1.500;2024-01-06T09:29:17;6.78;;;2.10;;
81864;SDS011;71313;43.514;1.500;2024-01-06T09:31:42;4.88;;;2.28;;
81864;SDS011;71313;43.514;1.500;2024-01-06T09:34:11;3.00;;;1.75;;
81864;SDS011;71313;43.514;1.500;2024-01-06T09:36:37;3.50;;;1.88;;
81864;SDS011;71313;43.514;1.500;2024-01-06T09:39:03;4.35;;;1.90;;
81864;SDS011;71313;43.514;1.500;2024-01-06T09:41:29;6.85;;;2.00;;
81864;SDS011;71313;43.514;1.500;2024-01-06T09:43:58;6.03;;;2.65;;
81864;SDS011;71313;43.514;1.500;2024-01-06T09:46:25;4.03;;;2.10;;
81864;SDS011;71313;43.514;1.500;2024-01-06T09:48:52;2.95;;;1.60;;
81864;SDS011;71313;43.514;1.500;2024-01-06T09:51:21;3.08;;;1.23;;
81864;SDS011;71313;43.514;1.500;2024-01-06T09:53:49;2.35;;;1.10;;
81864;SDS011;71313;43.514;1.500;2024-01-06T09:56:26;3.90;;;1.10;;
81864;SDS011;71313;43.514;1.500;2024-01-06T09:58:53;1.75;;;1.10;;
81864;SDS011;71313;43.514;1.500;2024-01-06T10:01:21;4.43;;;1.30;;
81864;SDS011;71313;43.514;1.500;2024-01-06T10:03:47;2.88;;;1.40;;
81864;SDS011;71313;43.514;1.500;2024-01-06T10:06:16;4.15;;;1.70;;
81864;SDS011;71313;43.514;1.500;2024-01-06T10:08:42;4.22;;;1.55;;
81864;SDS011;71313;43.514;1.500;2024-01-06T10:11:09;3.80;;;1.73;;
81864;SDS011;71313;43.514;1.500;2024-01-06T10:13:37;1.52;;;0.90;;
81864;SDS011;71313;43.514;1.500;2024-01-06T10:16:04;2.30;;;1.27;;
81864;SDS011;71313;43.514;1.500;2024-01-06T10:18:30;2.40;;;1.08;;
81864;SDS011;71313;43.514;1.500;2024-01-06T10:20:57;2.95;;;1.33;;
81864;SDS011;71313;43.514;1.500;2024-01-06T10:23:24;1.23;;;0.80;;
81864;SDS011;71313;43.514;1.500;2024-01-06T10:25:52;2.78;;;1.40;;
81864;SDS011;71313;43.514;1.500;2024-01-06T10:28:21;2.60;;;1.02;;
81864;SDS011;71313;43.514;1.500;2024-01-06T10:30:48;2.95;;;1.30;;
81864;SDS011;71313;43.514;1.500;2024-01-06T10:33:14;2.97;;;1.55;;
81864;SDS011;71313;43.514;1.500;2024-01-06T10:35:41;3.63;;;1.90;;
81864;SDS011;71313;43.514;1.500;2024-01-06T10:38:07;3.80;;;1.75;;
81864;SDS011;71313;43.514;1.500;2024-01-06T10:40:32;3.03;;;1.55;;
81864;SDS011;71313;43.514;1.500;2024-01-06T10:42:58;4.45;;;1.60;;
81864;SDS011;71313;43.514;1.500;2024-01-06T10:45:25;3.30;;;1.50;;
81864;SDS011;71313;43.514;1.500;2024-01-06T10:47:53;7.53;;;2.70;;
81864;SDS011;71313;43.514;1.500;2024-01-06T10:50:20;4.97;;;2.22;;
81864;SDS011;71313;43.514;1.500;2024-01-06T10:52:47;3.47;;;1.60;;
81864;SDS011;71313;43.514;1.500;2024-01-06T10:55:13;3.63;;;1.63;;
81864;SDS011;71313;43.514;1.500;2024-01-06T10:57:43;3.85;;;2.00;;
81864;SDS011;71313;43.514;1.500;2024-01-06T11:00:09;2.78;;;1.70;;
81864;SDS011;71313;43.514;1.500;2024-01-06T11:02:35;2.97;;;1.52;;
81864;SDS011;71313;43.514;1.500;2024-01-06T11:05:01;3.60;;;1.77;;
81864;SDS011;71313;43.514;1.500;2024-01-06T11:07:27;3.50;;;1.52;;
81864;SDS011;71313;43.514;1.500;2024-01-06T11:09:58;2.75;;;1.60;;
81864;SDS011;71313;43.514;1.500;2024-01-06T11:12:37;3.40;;;1.38;;
81864;SDS011;71313;43.514;1.500;2024-01-06T11:15:03;1.90;;;1.20;;
81864;SDS011;71313;43.514;1.500;2024-01-06T11:17:50;2.45;;;1.10;;
81864;SDS011;71313;43.514;1.500;2024-01-06T11:20:19;2.17;;;1.35;;
81864;SDS011;71313;43.514;1.500;2024-01-06T11:22:48;2.88;;;1.15;;
81864;SDS011;71313;43.514;1.500;2024-01-06T11:25:15;2.00;;;1.30;;
81864;SDS011;71313;43.514;1.500;2024-01-06T11:27:42;3.90;;;1.20;;
81864;SDS011;71313;43.514;1.500;2024-01-06T11:30:18;4.18;;;1.20;;
81864;SDS011;71313;43.514;1.500;2024-01-06T11:32:47;5.18;;;2.20;;
81864;SDS011;71313;43.514;1.500;2024-01-06T11:35:15;3.60;;;1.75;;
81864;SDS011;71313;43.514;1.500;2024-01-06T11:40:09;3.65;;;1.63;;
81864;SDS011;71313;43.514;1.500;2024-01-06T11:42:43;4.30;;;1.73;;
81864;SDS011;71313;43.514;1.500;2024-01-06T11:45:10;3.45;;;2.13;;
81864;SDS011;71313;43.514;1.500;2024-01-06T11:47:37;2.88;;;1.42;;
81864;SDS011;71313;43.514;1.500;2024-01-06T11:50:12;2.55;;;1.40;;
81864;SDS011;71313;43.514;1.500;2024-01-06T11:52:37;4.10;;;1.48;;
81864;SDS011;71313;43.514;1.500;2024-01-06T11:55:04;2.35;;;1.30;;
81864;SDS011;71313;43.514;1.500;2024-01-06T11:57:34;2.58;;;1.42;;
81864;SDS011;71313;43.514;1.500;2024-01-06T11:59:59;2.35;;;1.60;;
81864;SDS011;71313;43.514;1.500;2024-01-06T12:02:25;2.85;;;1.70;;
81864;SDS011;71313;43.514;1.500;2024-01-06T12:04:51;1.90;;;1.52;;
81864;SDS011;71313;43.514;1.500;2024-01-06T12:07:18;2.00;;;1.30;;
81864;SDS011;71313;43.514;1.500;2024-01-06T12:09:45;3.28;;;1.55;;
81864;SDS011;71313;43.514;1.500;2024-01-06T12:12:12;1.83;;;1.27;;
81864;SDS011;71313;43.514;1.500;2024-01-06T12:14:40;2.83;;;1.25;;
81864;SDS011;71313;43.514;1.500;2024-01-06T12:17:07;2.72;;;1.45;;
81864;SDS011;71313;43.514;1.500;2024-01-06T12:19:33;2.88;;;1.20;;
81864;SDS011;71313;43.514;1.500;2024-01-06T12:21:58;3.08;;;1.60;;
81864;SDS011;71313;43.514;1.500;2024-01-06T12:24:27;2.83;;;1.50;;
81864;SDS011;71313;43.514;1.500;2024-01-06T12:26:55;3.08;;;1.38;;
81864;SDS011;71313;43.514;1.500;2024-01-06T12:29:22;1.85;;;1.20;;
81864;SDS011;71313;43.514;1.500;2024-01-06T12:31:56;3.15;;;1.15;;
81864;SDS011;71313;43.514;1.500;2024-01-06T12:34:26;3.28;;;1.30;;
81864;SDS011;71313;43.514;1.500;2024-01-06T12:36:52;1.75;;;1.23;;
81864;SDS011;71313;43.514;1.500;2024-01-06T12:39:19;1.83;;;1.10;;
81864;SDS011;71313;43.514;1.500;2024-01-06T12:41:46;2.40;;;1.02;;
81864;SDS011;71313;43.514;1.500;2024-01-06T12:44:11;2.85;;;1.20;;
81864;SDS011;71313;43.514;1.500;2024-01-06T12:46:37;2.38;;;1.00;;
81864;SDS011;71313;43.514;1.500;2024-01-06T12:49:04;3.47;;;1.08;;
81864;SDS011;71313;43.514;1.500;2024-01-06T12:51:30;1.75;;;1.10;;
81864;SDS011;71313;43.514;1.500;2024-01-06T12:53:55;2.25;;;1.20;;
81864;SDS011;71313;43.514;1.500;2024-01-06T12:56:22;3.10;;;1.00;;
81864;SDS011;71313;43.514;1.500;2024-01-06T12:58:48;1.77;;;1.10;;
81864;SDS011;71313;43.514;1.500;2024-01-06T13:01:14;3.22;;;1.15;;
81864;SDS011;71313;43.514;1.500;2024-01-06T13:03:40;3.33;;;1.92;;
81864;SDS011;71313;43.514;1.500;2024-01-06T13:06:05;3.45;;;1.50;;
81864;SDS011;71313;43.514;1.500;2024-01-06T13:08:32;2.53;;;1.40;;
81864;SDS011;71313;43.514;1.500;2024-01-06T13:10:58;4.05;;;1.42;;
81864;SDS011;71313;43.514;1.500;2024-01-06T13:13:23;4.00;;;1.20;;
81864;SDS011;71313;43.514;1.500;2024-01-06T13:15:49;2.55;;;1.30;;
81864;SDS011;71313;43.514;1.500;2024-01-06T13:18:15;2.58;;;1.20;;
81864;SDS011;71313;43.514;1.500;2024-01-06T13:20:42;3.08;;;1.25;;
81864;SDS011;71313;43.514;1.500;2024-01-06T13:23:08;2.17;;;1.08;;
81864;SDS011;71313;43.514;1.500;2024-01-06T13:25:34;3.47;;;1.70;;
81864;SDS011;71313;43.514;1.500;2024-01-06T13:28:00;5.78;;;2.10;;
81864;SDS011;71313;43.514;1.500;2024-01-06T13:30:25;2.42;;;1.00;;
81864;SDS011;71313;43.514;1.500;2024-01-06T13:32:53;4.97;;;1.42;;
81864;SDS011;71313;43.514;1.500;2024-01-06T13:35:22;2.58;;;1.13;;
81864;SDS011;71313;43.514;1.500;2024-01-06T13:37:51;1.83;;;1.00;;
81864;SDS011;71313;43.514;1.500;2024-01-06T13:40:17;3.30;;;1.58;;
81864;SDS011;71313;43.514;1.500;2024-01-06T13:42:49;6.18;;;2.00;;
81864;SDS011;71313;43.514;1.500;2024-01-06T13:45:15;2.75;;;1.40;;
81864;SDS011;71313;43.514;1.500;2024-01-06T13:47:41;3.53;;;1.60;;
81864;SDS011;71313;43.514;1.500;2024-01-06T13:50:09;2.58;;;1.50;;
81864;SDS011;71313;43.514;1.500;2024-01-06T13:52:36;3.08;;;1.38;;
81864;SDS011;71313;43.514;1.500;2024-01-06T13:55:01;2.33;;;1.42;;
81864;SDS011;71313;43.514;1.500;2024-01-06T13:57:28;4.57;;;1.73;;
81864;SDS011;71313;43.514;1.500;2024-01-06T13:59:53;7.18;;;3.05;;
81864;SDS011;71313;43.514;1.500;2024-01-06T14:02:19;6.68;;;2.50;;
81864;SDS011;71313;43.514;1.500;2024-01-06T14:04:44;6.03;;;2.72;;
81864;SDS011;71313;43.514;1.500;2024-01-06T14:07:10;5.07;;;1.90;;
81864;SDS011;71313;43.514;1.500;2024-01-06T14:09:36;3.38;;;1.88;;
81864;SDS011;71313;43.514;1.500;2024-01-06T14:12:01;3.03;;;1.63;;
81864;SDS011;71313;43.514;1.500;2024-01-06T14:14:27;4.32;;;1.67;;
81864;SDS011;71313;43.514;1.500;2024-01-06T14:16:53;2.72;;;1.08;;
81864;SDS011;71313;43.514;1.500;2024-01-06T14:19:18;5.25;;;2.05;;
81864;SDS011;71313;43.514;1.500;2024-01-06T14:21:44;4.90;;;1.80;;
81864;SDS011;71313;43.514;1.500;2024-01-06T14:24:10;2.70;;;1.08;;
81864;SDS011;71313;43.514;1.500;2024-01-06T14:26:35;3.92;;;1.67;;
81864;SDS011;71313;43.514;1.500;2024-01-06T14:29:01;2.97;;;1.25;;
81864;SDS011;71313;43.514;1.500;2024-01-06T14:31:27;2.92;;;1.30;;
81864;SDS011;71313;43.514;1.500;2024-01-06T14:33:52;2.88;;;1.60;;
81864;SDS011;71313;43.514;1.500;2024-01-06T14:36:18;3.33;;;1.50;;
81864;SDS011;71313;43.514;1.500;2024-01-06T14:38:45;3.60;;;1.55;;
81864;SDS011;71313;43.514;1.500;2024-01-06T14:41:10;5.95;;;2.58;;
81864;SDS011;71313;43.514;1.500;2024-01-06T14:43:35;4.40;;;1.90;;
81864;SDS011;71313;43.514;1.500;2024-01-06T14:46:02;4.00;;;1.42;;